Holberg, Canada
Current Conditions -  °F | °C
As of 1:00 AM on Thursday 27 Nov 2014 (Local Time) from CYZT Reporting Station
Light Rain Light Rain  
Wind Chill: 45°   Ceiling: 4100
Heat Index: 48°   Visibility: 8mi
Dew Point: 48°   Wind: 7mph
Humidity: 100%   Direction: 90°E
Pressure: 29.58"   Gusts: NA
Location:  50.65°N, 128.02°W
Report Text: CYZT 270900Z 09006KT 8SM -RA FEW004 SCT020 OVC041 09/09 A2958 RMK SF2SC2SC4 SLP016
Loading
Personal Weather Stations






























Interactive Weather Map New forecast layout! Learn more

10-Day Weather Forecast

Advertisements
Track Severe Weather on mobile